Terminal Aerodrome Forecast
Issued by NWS Cleveland, OH

Home | Current Version | Previous Version | Text Only | Print | Product List | Glossary Off
Versions: 1 2 3 4 5 6 7 8 9 10 11 12 13 14 15 16 17 18 19 20

532
FTUS41 KCLE 181907 AAA
TAFMFD
TAF AMD
KMFD 181907Z 1819/1918 14014KT 3SM -SHRA VCTS SCT008 OVC012CB
      WS020/20040KT
      TEMPO 1820/1823 VRB30G40KT 1SM +TSRA OVC008CB
     FM190100 27020G35KT 2SM -SHRA BR OVC006
     FM190600 30020G35KT 3SM -SHRA BR OVC010
     FM190900 30015G25KT P6SM VCSH OVC025=

USA.gov is the U.S. government's official web portal to all federal, state and local government web resources and services.